Terminal Aerodrome Forecast
Issued by NWS Charleston, WV

Current Version | Previous Version | Text Only | Print | Product List | Glossary Off
Versions: 1 2 3 4 5 6 7 8 9 10 11 12 13 14 15 16 17 18 19 20 21 22

308
FTUS41 KRLX 141731
TAFBKW
TAF
KBKW 141731Z 1418/1518 14008KT P6SM BKN100
     FM142100 14008KT 4SM -SN OVC035
     FM150000 14011G16KT 2SM -SN OVC020
     FM150200 15014G24KT 1/2SM SN OVC008
     FM151500 15010KT 1SM -FZRASNPL BR OVC010=

USA.gov is the U.S. government's official web portal to all federal, state and local government web resources and services.